Time;durP1;ratioP1;P1;durP2;ratioP2;P2;SDS_P1;SDS_P2;PMS_P1;PMS_P2;Temp;Humidity;BMP_temperature;BMP_pressure;BME280_temperature;BME280_humidity;BME280_pressure;Samples;Min_cycle;Max_cycle;Signal;HPM_P1;HPM_P2
2022/05/16 00:01:27;;;;;;;6.27;2.87;;;20.90;96.80;;;;;;5101664;28;20212;-93
2022/05/16 00:03:54;;;;;;;7.10;2.73;;;20.80;97.00;;;;;;5100546;28;20225;-93
2022/05/16 00:06:21;;;;;;;5.30;3.03;;;20.80;97.40;;;;;;5099492;28;20204;-92
2022/05/16 00:08:51;;;;;;;4.30;2.73;;;20.80;97.60;;;;;;5097352;28;20583;-93
2022/05/16 00:11:19;;;;;;;5.70;2.90;;;20.80;97.60;;;;;;5098958;28;20411;-93
2022/05/16 00:13:49;;;;;;;7.30;2.83;;;20.70;98.20;;;;;;5099004;28;20289;-93
2022/05/16 00:16:17;;;;;;;7.53;3.20;;;20.60;98.40;;;;;;5101806;28;20211;-93
2022/05/16 00:18:46;;;;;;;7.83;2.93;;;20.70;98.60;;;;;;5111639;28;20240;-92
2022/05/16 00:21:13;;;;;;;4.87;2.90;;;20.70;98.80;;;;;;5108524;28;20208;-93
2022/05/16 00:23:50;;;;;;;6.20;3.30;;;20.70;99.30;;;;;;5099883;28;20668;-94
2022/05/16 00:26:23;;;;;;;6.10;2.90;;;20.70;99.60;;;;;;5096073;28;20200;-93
2022/05/16 00:28:52;;;;;;;5.20;3.30;;;20.60;99.70;;;;;;5095453;28;20899;-93
2022/05/16 00:31:25;;;;;;;4.43;2.70;;;20.60;99.90;;;;;;5095861;28;20223;-93
2022/05/16 00:33:52;;;;;;;5.10;2.67;;;20.60;99.90;;;;;;5095945;28;20236;-93
2022/05/16 00:36:25;;;;;;;3.70;2.87;;;20.50;99.90;;;;;;5096106;28;20212;-92
2022/05/16 00:38:54;;;;;;;6.17;2.80;;;20.60;99.90;;;;;;5095723;28;20689;-93
2022/05/16 00:41:24;;;;;;;5.93;2.77;;;20.50;99.90;;;;;;5096404;28;20205;-92
2022/05/16 00:44:00;;;;;;;4.10;2.80;;;20.50;99.90;;;;;;5095829;28;20652;-93
2022/05/16 00:46:30;;;;;;;4.20;2.93;;;20.60;99.90;;;;;;5095885;28;20201;-92
2022/05/16 00:49:04;;;;;;;12.00;3.00;;;20.50;99.90;;;;;;5095910;28;20269;-94
2022/05/16 00:51:35;;;;;;;6.57;2.80;;;20.40;99.90;;;;;;5095915;28;20229;-93
2022/05/16 00:54:11;;;;;;;3.23;2.80;;;20.40;99.90;;;;;;5095312;28;20203;-93
2022/05/16 00:56:41;;;;;;;8.97;3.07;;;20.30;99.90;;;;;;5095232;28;20648;-92
2022/05/16 00:59:15;;;;;;;3.07;2.57;;;20.30;99.90;;;;;;5095242;28;20571;-94
2022/05/16 01:04:49;;;;;;;5.75;2.60;;;20.40;99.90;;;;;;5095182;28;20393;-94
2022/05/16 01:07:22;;;;;;;3.67;2.50;;;20.60;99.90;;;;;;5095188;28;20652;-92
2022/05/16 01:09:50;;;;;;;3.33;2.50;;;20.50;99.90;;;;;;5095922;28;20222;-93
2022/05/16 01:12:17;;;;;;;6.50;2.87;;;20.50;99.90;;;;;;5096442;28;20209;-92
2022/05/16 01:14:50;;;;;;;3.30;2.43;;;20.50;99.90;;;;;;5096136;28;20223;-92
2022/05/16 01:17:20;;;;;;;4.57;2.67;;;20.60;99.90;;;;;;5096050;28;20227;-93
2022/05/16 01:19:49;;;;;;;8.87;3.23;;;20.50;99.90;;;;;;5096150;28;20204;-92
2022/05/16 01:22:33;;;;;;;3.45;2.60;;;20.30;99.90;;;;;;5093453;28;20897;-92
2022/05/16 01:25:22;;;;;;;2.57;2.33;;;20.40;99.90;;;;;;5107842;28;20200;-93
2022/05/16 01:27:55;;;;;;;5.10;2.37;;;20.30;99.90;;;;;;5096828;28;20207;-93
2022/05/16 01:30:27;;;;;;;3.67;2.30;;;20.20;99.90;;;;;;5095624;28;20745;-93
2022/05/16 01:33:04;;;;;;;2.60;2.40;;;20.10;99.90;;;;;;5094916;28;20240;-92
2022/05/16 01:35:50;;;;;;;4.37;2.40;;;20.10;99.90;;;;;;5099956;28;20210;-93
2022/05/16 01:38:27;;;;;;;4.33;2.43;;;20.00;99.90;;;;;;5100177;28;20230;-93
2022/05/16 01:40:57;;;;;;;3.90;2.73;;;20.00;99.90;;;;;;5101668;28;20666;-92
2022/05/16 01:43:29;;;;;;;4.57;2.60;;;20.10;99.90;;;;;;5083168;28;20714;-93
2022/05/16 01:46:10;;;;;;;5.30;2.67;;;20.10;99.90;;;;;;5100069;28;20650;-93
2022/05/16 01:48:49;;;;;;;4.43;2.53;;;20.00;99.90;;;;;;5100035;28;20187;-93
2022/05/16 01:51:19;;;;;;;7.30;2.73;;;20.00;99.90;;;;;;5098995;28;20205;-93
2022/05/16 01:53:54;;;;;;;4.27;2.53;;;20.00;99.90;;;;;;5099437;28;20211;-93
2022/05/16 01:56:22;;;;;;;6.20;2.43;;;20.00;99.90;;;;;;5102290;28;20734;-93
2022/05/16 01:58:50;;;;;;;9.30;2.73;;;19.80;99.90;;;;;;5100456;28;20225;-93
2022/05/16 02:01:17;;;;;;;3.80;2.30;;;19.80;99.90;;;;;;5100658;28;20202;-92
2022/05/16 02:03:50;;;;;;;5.53;2.67;;;19.70;99.90;;;;;;5100494;28;20291;-92
2022/05/16 02:06:18;;;;;;;16.07;2.90;;;19.70;99.90;;;;;;5107508;28;20204;-95
2022/05/16 02:08:45;;;;;;;4.43;2.40;;;19.80;99.90;;;;;;5105729;28;20209;-92
2022/05/16 02:11:16;;;;;;;5.53;2.63;;;19.70;99.90;;;;;;5101016;28;20212;-93
2022/05/16 02:13:46;;;;;;;6.38;2.97;;;19.70;99.90;;;;;;5100411;28;20434;-92
2022/05/16 02:16:16;;;;;;;3.93;2.47;;;19.80;99.90;;;;;;5097884;28;20294;-92
2022/05/16 02:18:44;;;;;;;4.70;2.70;;;19.70;99.90;;;;;;5099202;28;20235;-93
2022/05/16 02:26:47;;;;;;;4.40;2.70;;;19.80;99.90;;;;;;5098971;28;20263;-92
2022/05/16 02:29:25;;;;;;;5.60;2.80;;;19.70;99.90;;;;;;5098452;28;20200;-93
2022/05/16 02:31:52;;;;;;;4.57;2.93;;;19.70;99.90;;;;;;5098455;28;20238;-93
2022/05/16 02:34:22;;;;;;;3.20;2.50;;;19.80;99.90;;;;;;5098456;28;20230;-92
2022/05/16 02:36:55;;;;;;;4.63;2.40;;;19.70;99.90;;;;;;5099160;28;20202;-93
2022/05/16 02:39:23;;;;;;;4.93;2.60;;;19.80;99.90;;;;;;5098610;28;20233;-93
2022/05/16 02:42:08;;;;;;;6.53;2.70;;;19.80;99.90;;;;;;5099219;28;20218;-92
2022/05/16 02:44:41;;;;;;;6.43;2.23;;;19.80;99.90;;;;;;5098931;28;20204;-92
2022/05/16 02:47:15;;;;;;;8.07;2.55;;;19.90;99.90;;;;;;5099331;28;20422;-94
2022/05/16 02:49:43;;;;;;;5.10;2.20;;;19.90;99.90;;;;;;5111363;28;20201;-93
2022/05/16 02:52:12;;;;;;;4.10;2.50;;;19.80;99.90;;;;;;5098930;28;20216;-92
2022/05/16 02:54:56;;;;;;;2.87;2.60;;;19.70;99.90;;;;;;5098148;28;20639;-92
2022/05/16 02:57:37;;;;;;;4.90;2.77;;;19.80;99.90;;;;;;5099003;28;20217;-93
2022/05/16 03:00:08;;;;;;;4.97;2.90;;;19.80;99.90;;;;;;5098861;28;20238;-93
2022/05/16 03:02:37;;;;;;;3.27;2.50;;;19.70;99.90;;;;;;5096834;28;20652;-92
2022/05/16 03:05:06;;;;;;;5.77;2.70;;;19.80;99.90;;;;;;5098289;28;20209;-92
2022/05/16 03:07:37;;;;;;;5.73;2.67;;;20.00;99.90;;;;;;5098051;28;20271;-92
2022/05/16 03:10:15;;;;;;;6.87;2.70;;;20.00;99.90;;;;;;5098212;28;20200;-93
2022/05/16 03:12:49;;;;;;;4.97;2.50;;;20.00;99.90;;;;;;5097982;28;20203;-93
2022/05/16 03:15:17;;;;;;;7.10;2.70;;;20.00;99.90;;;;;;5098383;28;20196;-91
2022/05/16 03:17:45;;;;;;;5.90;2.63;;;20.00;99.90;;;;;;5096552;28;20286;-92
2022/05/16 03:20:19;;;;;;;7.47;2.93;;;19.80;99.90;;;;;;5097900;28;20546;-93
2022/05/16 03:22:51;;;;;;;7.90;3.07;;;19.80;99.90;;;;;;5097650;28;20307;-93
2022/05/16 03:25:25;;;;;;;5.47;2.83;;;19.80;99.90;;;;;;5097931;28;20209;-91
2022/05/16 03:28:13;;;;;;;5.57;3.00;;;19.70;99.90;;;;;;5097154;28;20295;-93
2022/05/16 03:30:44;;;;;;;4.93;2.73;;;19.60;99.90;;;;;;5096988;28;20204;-93
2022/05/16 03:33:14;;;;;;;5.17;2.57;;;19.50;99.90;;;;;;5096608;28;20224;-93
2022/05/16 03:35:44;;;;;;;4.77;2.60;;;19.50;99.90;;;;;;5099763;28;20198;-92
2022/05/16 03:41:00;;;;;;;7.22;3.30;;;19.40;99.90;;;;;;5105362;28;20430;-94
2022/05/16 03:43:36;;;;;;;8.43;2.90;;;19.60;99.90;;;;;;5105426;28;20289;-93
2022/05/16 03:46:05;;;;;;;3.50;3.13;;;19.60;99.90;;;;;;5111430;28;20213;-92
2022/05/16 03:48:38;;;;;;;4.93;3.00;;;19.60;99.90;;;;;;5108315;28;20218;-92
2022/05/16 03:51:13;;;;;;;5.03;2.97;;;19.50;99.90;;;;;;5105355;28;20630;-93
2022/05/16 03:53:46;;;;;;;4.00;2.57;;;19.60;99.90;;;;;;5104878;28;20208;-94
2022/05/16 03:56:17;;;;;;;5.53;3.20;;;19.60;99.90;;;;;;5108421;28;20239;-93
2022/05/16 03:58:51;;;;;;;4.70;2.60;;;19.70;99.90;;;;;;5111450;28;20211;-94
2022/05/16 04:01:19;;;;;;;5.57;2.67;;;19.60;99.90;;;;;;5109092;28;20207;-94
2022/05/16 04:03:49;;;;;;;2.73;2.40;;;19.70;99.90;;;;;;5107006;28;20216;-94
2022/05/16 04:06:18;;;;;;;6.60;2.53;;;19.60;99.90;;;;;;5101054;28;20199;-94
2022/05/16 04:08:46;;;;;;;5.07;2.77;;;19.70;99.90;;;;;;5096514;28;20226;-93
2022/05/16 04:11:19;;;;;;;5.27;2.30;;;19.70;99.90;;;;;;5096647;28;20208;-92
2022/05/16 04:13:50;;;;;;;5.93;2.70;;;19.60;99.90;;;;;;5096638;28;20207;-91
2022/05/16 04:16:18;;;;;;;3.10;2.57;;;19.40;99.90;;;;;;5095869;28;20214;-92
2022/05/16 04:18:48;;;;;;;7.93;2.80;;;19.40;99.90;;;;;;5096399;28;20254;-90
2022/05/16 04:21:17;;;;;;;10.00;2.73;;;19.30;99.90;;;;;;5096345;28;20204;-93
2022/05/16 04:23:47;;;;;;;3.57;2.80;;;19.30;99.90;;;;;;5096108;28;20212;-94
2022/05/16 04:26:15;;;;;;;6.00;2.70;;;19.30;99.90;;;;;;5096013;28;20219;-93
2022/05/16 04:28:44;;;;;;;5.10;2.90;;;19.20;99.90;;;;;;5097141;28;20203;-94
2022/05/16 04:31:16;;;;;;;4.87;2.43;;;19.30;99.90;;;;;;5108424;28;20211;-94
2022/05/16 04:33:48;;;;;;;7.43;2.50;;;19.30;99.90;;;;;;5096102;28;20228;-93
2022/05/16 04:36:15;;;;;;;8.63;2.90;;;19.40;99.90;;;;;;5096533;28;20563;-91
2022/05/16 04:38:48;;;;;;;8.50;2.90;;;19.30;99.90;;;;;;5097631;28;20301;-91
2022/05/16 04:44:11;;;;;;;5.70;2.60;;;19.40;99.90;;;;;;5097204;28;20207;-90
2022/05/16 04:46:41;;;;;;;5.73;2.50;;;19.60;99.90;;;;;;5096643;28;20215;-90
2022/05/16 04:49:14;;;;;;;6.37;2.40;;;19.50;99.90;;;;;;5096655;28;20207;-93
2022/05/16 04:51:44;;;;;;;7.20;2.50;;;19.50;99.90;;;;;;5097191;28;20211;-93
2022/05/16 04:54:11;;;;;;;3.37;2.20;;;19.50;99.90;;;;;;5094464;28;20211;-93
2022/05/16 04:56:46;;;;;;;6.23;2.50;;;19.60;99.90;;;;;;5095130;28;20687;-93
2022/05/16 04:59:15;;;;;;;6.03;2.80;;;19.70;99.90;;;;;;5095422;28;20241;-93
2022/05/16 05:01:50;;;;;;;6.10;2.57;;;19.50;99.90;;;;;;5094477;28;20308;-93
2022/05/16 05:04:21;;;;;;;6.67;2.37;;;19.60;99.90;;;;;;5095639;28;20201;-92
2022/05/16 05:06:48;;;;;;;6.67;2.40;;;19.70;99.90;;;;;;5096006;28;20220;-91
2022/05/16 05:09:16;;;;;;;6.77;2.60;;;19.80;99.90;;;;;;5095315;28;20216;-93
2022/05/16 05:14:34;;;;;;;4.53;2.50;;;20.00;99.90;;;;;;5094618;28;20273;-91
2022/05/16 05:17:07;;;;;;;3.87;2.17;;;20.00;99.90;;;;;;5093986;28;20662;-92
2022/05/16 05:19:54;;;;;;;4.07;2.80;;;20.10;99.90;;;;;;5100590;28;20307;-92
2022/05/16 05:22:23;;;;;;;5.77;2.50;;;20.10;99.90;;;;;;5099756;28;20208;-94
2022/05/16 05:24:52;;;;;;;6.03;2.50;;;20.20;99.90;;;;;;5099541;28;20199;-95
2022/05/16 05:27:19;;;;;;;6.77;2.57;;;20.20;99.90;;;;;;5102269;28;20207;-91
2022/05/16 05:29:48;;;;;;;4.90;2.83;;;19.90;99.90;;;;;;5106244;28;20213;-92
2022/05/16 05:32:17;;;;;;;11.27;2.70;;;20.10;99.90;;;;;;5108747;28;20202;-94
2022/05/16 05:34:45;;;;;;;13.30;3.27;;;20.10;99.90;;;;;;5107565;28;20212;-92
2022/05/16 05:37:18;;;;;;;8.07;3.33;;;19.90;99.90;;;;;;5097959;28;20205;-94
2022/05/16 05:39:47;;;;;;;7.60;3.17;;;19.90;99.90;;;;;;5097698;28;20226;-93
2022/05/16 05:42:20;;;;;;;18.90;3.77;;;19.80;99.90;;;;;;5096695;28;20473;-92
2022/05/16 05:44:49;;;;;;;9.77;2.90;;;20.10;99.90;;;;;;5098968;28;20209;-94
2022/05/16 05:47:23;;;;;;;5.63;2.60;;;20.10;99.90;;;;;;5105706;28;20560;-92
2022/05/16 05:49:52;;;;;;;4.90;2.70;;;20.20;99.90;;;;;;5101665;28;20215;-93
2022/05/16 05:52:21;;;;;;;6.03;2.90;;;20.10;99.90;;;;;;5105324;28;20193;-93
2022/05/16 05:54:51;;;;;;;5.57;2.70;;;20.20;99.90;;;;;;5102950;28;20199;-95
2022/05/16 05:57:29;;;;;;;9.03;3.73;;;20.20;99.90;;;;;;5105267;28;20225;-93
2022/05/16 06:00:04;;;;;;;6.70;3.10;;;20.20;99.90;;;;;;5103780;28;20225;-93
2022/05/16 06:02:40;;;;;;;6.40;2.90;;;20.30;99.90;;;;;;5104384;28;20200;-89
2022/05/16 06:05:08;;;;;;;9.33;2.63;;;20.40;99.90;;;;;;5101353;28;20557;-95
2022/05/16 06:07:38;;;;;;;10.03;2.70;;;20.50;99.90;;;;;;5101976;28;20212;-94
2022/05/16 06:10:07;;;;;;;7.03;2.37;;;20.80;99.90;;;;;;5101355;28;20205;-91
2022/05/16 06:12:35;;;;;;;9.07;3.00;;;20.90;99.90;;;;;;5104594;28;20208;-92
2022/05/16 06:15:10;;;;;;;8.93;2.50;;;20.90;99.90;;;;;;5102398;28;20211;-92
2022/05/16 06:17:43;;;;;;;8.70;2.30;;;20.90;99.90;;;;;;5098672;28;20204;-93
2022/05/16 06:20:12;;;;;;;10.60;2.70;;;20.90;99.90;;;;;;5100961;28;20224;-92
2022/05/16 06:22:42;;;;;;;8.30;2.67;;;20.90;99.90;;;;;;5104270;28;20205;-95
2022/05/16 06:28:02;;;;;;;7.40;2.23;;;21.00;99.90;;;;;;5097498;28;20190;-93
2022/05/16 06:30:32;;;;;;;4.37;2.10;;;21.10;99.90;;;;;;5099338;28;20208;-94
2022/05/16 06:33:02;;;;;;;5.53;2.07;;;21.20;99.90;;;;;;5098094;28;20229;-94
2022/05/16 06:35:42;;;;;;;6.67;2.13;;;21.30;99.90;;;;;;5100156;28;20208;-94
2022/05/16 06:38:15;;;;;;;6.47;2.30;;;21.40;99.90;;;;;;5098736;28;20228;-93
2022/05/16 06:40:46;;;;;;;7.50;2.10;;;21.60;99.90;;;;;;5098441;28;20241;-92
2022/05/16 06:43:13;;;;;;;8.50;2.30;;;21.50;99.90;;;;;;5098063;28;20197;-92
2022/05/16 06:45:41;;;;;;;6.90;2.57;;;21.60;99.90;;;;;;5111492;28;20212;-93
2022/05/16 06:48:11;;;;;;;5.93;2.90;;;21.50;99.90;;;;;;5107644;28;20214;-94
2022/05/16 06:50:39;;;;;;;8.33;2.77;;;21.50;99.90;;;;;;5098434;28;20213;-95
2022/05/16 06:53:11;;;;;;;6.17;2.70;;;21.50;99.90;;;;;;5098453;28;20197;-94
2022/05/16 06:55:38;;;;;;;4.73;2.10;;;21.50;99.90;;;;;;5098640;28;20584;-95
2022/05/16 06:58:08;;;;;;;22.20;3.47;;;21.60;99.90;;;;;;5098070;28;20201;-93
2022/05/16 07:00:41;;;;;;;3.47;2.27;;;21.60;99.90;;;;;;5097269;28;20684;-92
2022/05/16 07:03:12;;;;;;;4.93;2.50;;;21.60;99.90;;;;;;5097689;28;20200;-94
2022/05/16 07:05:40;;;;;;;6.90;2.47;;;21.70;99.90;;;;;;5095888;28;20203;-94
2022/05/16 07:08:08;;;;;;;5.70;2.53;;;21.90;99.90;;;;;;5130033;27;20209;-95
2022/05/16 07:10:36;;;;;;;6.65;3.00;;;21.90;99.90;;;;;;5096147;28;20437;-93
2022/05/16 07:13:10;;;;;;;8.57;2.80;;;22.00;99.90;;;;;;5097448;28;20198;-95
2022/05/16 07:15:37;;;;;;;9.67;2.57;;;22.20;99.90;;;;;;5097581;28;20190;-96
2022/05/16 07:18:04;;;;;;;4.80;2.37;;;22.20;99.90;;;;;;5098689;28;20216;-96
2022/05/16 07:20:32;;;;;;;4.60;2.50;;;22.00;99.90;;;;;;5096238;28;20234;-96
2022/05/16 07:22:59;;;;;;;5.37;2.57;;;21.90;99.90;;;;;;5097914;28;20212;-91
2022/05/16 07:25:27;;;;;;;4.50;2.40;;;22.00;99.90;;;;;;5097361;28;20199;-90
2022/05/16 07:27:57;;;;;;;7.33;2.90;;;22.00;99.90;;;;;;5098719;28;20193;-92
2022/05/16 07:30:26;;;;;;;4.47;2.70;;;22.10;99.90;;;;;;5133334;27;20221;-90
2022/05/16 07:33:00;;;;;;;3.57;2.40;;;21.90;99.90;;;;;;5096841;28;20216;-90
2022/05/16 07:35:36;;;;;;;23.20;2.93;;;21.90;99.90;;;;;;5095470;28;20200;-92
2022/05/16 07:38:04;;;;;;;12.27;2.40;;;22.00;99.90;;;;;;5094236;28;20194;-91
2022/05/16 07:40:34;;;;;;;3.17;2.40;;;22.20;99.90;;;;;;5096858;28;20269;-92
2022/05/16 07:43:03;;;;;;;4.90;2.80;;;22.20;99.90;;;;;;5098286;28;20289;-90
2022/05/16 07:45:32;;;;;;;5.53;2.95;;;22.20;99.90;;;;;;5130061;27;20431;-90
2022/05/16 07:48:03;;;;;;;9.37;2.93;;;22.10;99.90;;;;;;5098741;28;20202;-90
2022/05/16 07:50:30;;;;;;;6.77;2.53;;;21.90;99.90;;;;;;5098839;28;20275;-90
2022/05/16 07:52:58;;;;;;;7.13;2.57;;;21.90;99.90;;;;;;5098437;28;20217;-90
2022/05/16 07:55:26;;;;;;;5.53;2.97;;;21.90;99.90;;;;;;5096722;28;20205;-87
2022/05/16 07:57:53;;;;;;;6.30;3.27;;;21.90;99.90;;;;;;5095203;28;20206;-87
2022/05/16 08:00:22;;;;;;;4.73;3.40;;;22.00;99.90;;;;;;5094938;28;20228;-87
2022/05/16 08:02:50;;;;;;;4.30;2.93;;;22.00;99.90;;;;;;5094711;28;20204;-87
2022/05/16 08:05:18;;;;;;;4.83;3.13;;;22.20;99.90;;;;;;5095068;28;20197;-86
2022/05/16 08:10:31;;;;;;;3.63;2.83;;;22.20;99.90;;;;;;5095110;28;20241;-87
2022/05/16 08:13:00;;;;;;;6.40;3.70;;;22.00;99.90;;;;;;5095080;28;20201;-86
2022/05/16 08:15:27;;;;;;;4.57;3.63;;;22.10;99.90;;;;;;5095523;28;20675;-87
2022/05/16 08:17:54;;;;;;;17.27;5.10;;;22.20;99.90;;;;;;5094798;28;20202;-87
2022/05/16 08:20:22;;;;;;;9.93;4.55;;;22.20;99.90;;;;;;5094392;28;20469;-86
2022/05/16 08:22:48;;;;;;;7.07;4.20;;;22.00;99.90;;;;;;5093836;28;20640;-88
2022/05/16 08:25:15;;;;;;;9.63;4.20;;;22.00;99.90;;;;;;5094869;28;20194;-90
2022/05/16 08:27:44;;;;;;;12.17;4.30;;;22.10;99.90;;;;;;5094788;28;20197;-86
2022/05/16 08:30:12;;;;;;;5.63;3.30;;;22.10;99.90;;;;;;5095223;28;20242;-87
2022/05/16 08:32:40;;;;;;;5.83;3.80;;;22.10;99.90;;;;;;5095214;28;20237;-87
2022/05/16 08:35:10;;;;;;;4.70;3.60;;;22.10;99.90;;;;;;5094875;28;20197;-87
2022/05/16 08:40:29;;;;;;;8.23;4.13;;;22.20;99.90;;;;;;5094299;28;20696;-87
2022/05/16 08:43:04;;;;;;;5.80;4.30;;;22.10;99.90;;;;;;5093730;28;20202;-83
2022/05/16 08:45:37;;;;;;;7.33;4.10;;;22.00;99.90;;;;;;5074795;28;20213;-86
2022/05/16 08:48:09;;;;;;;6.20;4.27;;;21.90;99.90;;;;;;5093352;28;20209;-86
2022/05/16 08:50:41;;;;;;;32.33;6.23;;;21.90;99.90;;;;;;5093835;28;20204;-87
2022/05/16 08:53:12;;;;;;;10.97;4.73;;;21.90;99.90;;;;;;5094316;28;20267;-86
2022/05/16 08:55:42;;;;;;;7.97;4.87;;;21.80;99.90;;;;;;5093687;28;20216;-86
2022/05/16 08:58:19;;;;;;;8.43;5.10;;;21.80;99.90;;;;;;5094291;28;20204;-87
2022/05/16 09:00:53;;;;;;;9.47;6.03;;;21.70;99.90;;;;;;5094980;28;20231;-88
2022/05/16 09:03:26;;;;;;;6.43;5.20;;;21.50;99.90;;;;;;5094023;28;20192;-87
2022/05/16 09:05:58;;;;;;;5.57;5.07;;;21.50;99.90;;;;;;5094322;28;20249;-85
2022/05/16 09:08:43;;;;;;;10.27;5.43;;;21.30;99.90;;;;;;5092565;28;20197;-85
2022/05/16 09:11:15;;;;;;;7.57;5.37;;;21.20;99.90;;;;;;5096410;28;20283;-85
2022/05/16 09:13:50;;;;;;;8.90;5.57;;;21.30;99.90;;;;;;5095893;28;20200;-86
2022/05/16 09:16:40;;;;;;;11.13;5.50;;;21.30;99.90;;;;;;5095591;28;20206;-87
2022/05/16 09:19:24;;;;;;;8.47;5.97;;;21.40;99.90;;;;;;5094943;28;20202;-87
2022/05/16 09:22:03;;;;;;;8.43;5.50;;;21.30;99.90;;;;;;5095235;28;20201;-87
2022/05/16 09:24:35;;;;;;;8.70;5.30;;;21.30;99.90;;;;;;5094670;28;20207;-87
2022/05/16 09:27:08;;;;;;;8.10;6.10;;;21.40;99.90;;;;;;5094506;28;20207;-83
2022/05/16 09:29:39;;;;;;;8.30;6.30;;;21.40;99.90;;;;;;5092218;28;20517;-83
2022/05/16 09:32:11;;;;;;;10.20;6.30;;;21.30;99.90;;;;;;5093564;28;20194;-83
2022/05/16 09:34:38;;;;;;;13.57;5.90;;;21.30;99.90;;;;;;5093865;28;20199;-87
2022/05/16 09:37:05;;;;;;;5.60;5.10;;;21.20;99.90;;;;;;5095106;28;20199;-83
2022/05/16 09:39:33;;;;;;;13.30;11.30;;;21.20;99.90;;;;;;5093614;28;20208;-84
2022/05/16 09:42:02;;;;;;;6.73;6.03;;;21.10;99.90;;;;;;5093414;28;20207;-82
2022/05/16 09:44:34;;;;;;;8.87;5.80;;;21.00;99.90;;;;;;5092933;28;20587;-80
2022/05/16 09:47:22;;;;;;;6.57;5.70;;;21.10;99.90;;;;;;5092936;28;20209;-82
2022/05/16 09:50:06;;;;;;;7.73;5.40;;;21.40;99.90;;;;;;5092172;28;20221;-82
2022/05/16 09:52:36;;;;;;;8.30;5.77;;;21.40;99.90;;;;;;5092859;28;20205;-82
2022/05/16 09:55:06;;;;;;;10.73;5.73;;;21.40;99.90;;;;;;5093116;28;20196;-82
2022/05/16 09:57:40;;;;;;;8.00;5.23;;;21.60;99.90;;;;;;5097512;28;20215;-83
2022/05/16 10:00:23;;;;;;;8.97;6.03;;;21.60;99.90;;;;;;5096786;28;20227;-79
2022/05/16 10:03:00;;;;;;;11.53;5.53;;;21.50;99.90;;;;;;5096954;28;20212;-80
2022/05/16 10:05:29;;;;;;;12.33;5.90;;;21.60;99.90;;;;;;5096922;28;20208;-81
2022/05/16 10:08:02;;;;;;;7.87;5.60;;;21.70;99.90;;;;;;5097129;28;20293;-80
2022/05/16 10:10:33;;;;;;;7.00;5.17;;;21.70;99.90;;;;;;5096807;28;20261;-81
2022/05/16 10:13:01;;;;;;;11.30;5.67;;;21.50;99.90;;;;;;5096719;28;20214;-83
2022/05/16 10:15:28;;;;;;;11.67;5.83;;;21.50;99.90;;;;;;5096841;28;20205;-82
2022/05/16 10:17:57;;;;;;;9.33;4.30;;;21.50;99.90;;;;;;5096433;28;20641;-81
2022/05/16 10:20:29;;;;;;;7.30;4.90;;;21.80;99.90;;;;;;5096688;28;20755;-82
2022/05/16 10:22:59;;;;;;;6.43;4.40;;;21.80;99.90;;;;;;5096670;28;20185;-81
2022/05/16 10:25:29;;;;;;;8.37;4.90;;;21.90;99.90;;;;;;5096585;28;20201;-81
2022/05/16 10:27:58;;;;;;;8.73;5.10;;;21.80;99.90;;;;;;5096963;28;20251;-82
2022/05/16 10:30:27;;;;;;;6.50;4.53;;;21.90;99.90;;;;;;5096489;28;20205;-82
2022/05/16 10:35:48;;;;;;;9.17;5.70;;;21.80;99.90;;;;;;5096385;28;20204;-82
2022/05/16 10:38:24;;;;;;;10.07;4.60;;;21.70;99.90;;;;;;5096474;28;20194;-81
2022/05/16 10:40:57;;;;;;;8.02;4.38;;;21.80;99.90;;;;;;5095808;28;20533;-83
2022/05/16 10:43:36;;;;;;;39.83;5.30;;;21.70;99.90;;;;;;5096708;28;20205;-84
2022/05/16 10:46:06;;;;;;;8.77;3.80;;;21.50;99.90;;;;;;5095955;28;20742;-85
2022/05/16 10:48:41;;;;;;;7.77;4.10;;;21.50;99.90;;;;;;5096715;28;20215;-82
2022/05/16 10:51:13;;;;;;;7.40;3.80;;;21.40;99.90;;;;;;5096114;28;20198;-81
2022/05/16 10:53:50;;;;;;;7.83;3.40;;;21.40;99.90;;;;;;5096211;28;20201;-83
2022/05/16 10:56:37;;;;;;;6.83;3.70;;;21.40;99.90;;;;;;5095606;28;20211;-81
2022/05/16 10:59:13;;;;;;;7.80;3.93;;;21.40;99.90;;;;;;5095447;28;20426;-82
2022/05/16 11:01:44;;;;;;;9.23;4.00;;;21.60;99.90;;;;;;5095533;28;20477;-81
2022/05/16 11:04:38;;;;;;;7.53;3.73;;;21.60;99.90;;;;;;5095774;28;20569;-81
2022/05/16 11:07:15;;;;;;;12.40;3.93;;;21.80;99.90;;;;;;5094002;28;20652;-82
2022/05/16 11:09:52;;;;;;;15.87;4.57;;;21.80;99.90;;;;;;5096375;28;20193;-84
2022/05/16 11:12:26;;;;;;;7.70;3.47;;;22.00;99.90;;;;;;5096081;28;20205;-83
2022/05/16 11:15:04;;;;;;;5.73;4.40;;;22.00;99.90;;;;;;5096413;28;20273;-83
2022/05/16 11:17:35;;;;;;;12.10;4.38;;;22.20;99.90;;;;;;5093599;28;20438;-83
2022/05/16 11:20:09;;;;;;;9.23;4.27;;;22.40;99.90;;;;;;5096583;28;20211;-85
2022/05/16 11:22:40;;;;;;;6.27;3.23;;;22.50;99.90;;;;;;5095545;28;20285;-85
2022/05/16 11:25:12;;;;;;;8.03;3.90;;;22.50;99.90;;;;;;5074969;28;20282;-83
2022/05/16 11:27:50;;;;;;;11.00;4.23;;;22.50;99.90;;;;;;5075266;28;20242;-86
2022/05/16 11:30:22;;;;;;;7.37;3.97;;;22.70;99.90;;;;;;5075537;28;20301;-85
2022/05/16 11:33:00;;;;;;;7.50;3.67;;;22.50;99.90;;;;;;5075516;28;20248;-83
2022/05/16 11:35:35;;;;;;;9.30;3.67;;;22.40;99.90;;;;;;5076681;28;20206;-83
2022/05/16 11:38:12;;;;;;;9.77;4.10;;;22.50;99.90;;;;;;5074509;28;20187;-82
2022/05/16 11:40:47;;;;;;;13.73;3.47;;;22.50;99.90;;;;;;5074347;28;20272;-83
2022/05/16 11:43:20;;;;;;;9.17;3.50;;;22.70;99.90;;;;;;5075031;28;20258;-82
2022/05/16 11:46:12;;;;;;;6.20;3.53;;;22.60;99.90;;;;;;5074053;28;20238;-81
2022/05/16 11:48:49;;;;;;;5.63;3.33;;;22.60;99.90;;;;;;5069102;28;20568;-85
2022/05/16 11:51:27;;;;;;;6.93;3.27;;;22.80;99.90;;;;;;5081286;28;20234;-84
2022/05/16 11:53:58;;;;;;;12.57;3.37;;;22.60;99.90;;;;;;5089245;28;20669;-82
2022/05/16 12:02:12;;;;;;;5.10;2.90;;;22.40;99.90;;;;;;5094751;28;20238;-82
2022/05/16 12:04:48;;;;;;;6.30;2.70;;;22.70;99.90;;;;;;5094940;28;20201;-81
2022/05/16 12:07:22;;;;;;;6.80;2.57;;;22.40;99.90;;;;;;5094532;28;20201;-83
2022/05/16 12:10:01;;;;;;;6.83;2.20;;;22.30;99.90;;;;;;5096898;28;20202;-83
2022/05/16 12:12:32;;;;;;;8.97;2.70;;;22.40;99.90;;;;;;5100201;28;20206;-84
2022/05/16 12:15:20;;;;;;;6.73;2.40;;;22.40;99.90;;;;;;5098844;28;20241;-82
2022/05/16 12:17:51;;;;;;;8.50;2.50;;;22.40;99.90;;;;;;5094497;28;20292;-84
2022/05/16 12:20:37;;;;;;;7.00;2.43;;;22.30;99.90;;;;;;5094630;28;20186;-85
2022/05/16 12:23:08;;;;;;;9.50;2.33;;;22.40;99.90;;;;;;5094428;28;20263;-82
2022/05/16 12:25:37;;;;;;;6.63;2.27;;;22.30;99.90;;;;;;5094819;28;20191;-83
2022/05/16 12:28:29;;;;;;;6.60;2.80;;;22.30;99.90;;;;;;5094295;28;20214;-82
2022/05/16 12:31:00;;;;;;;11.37;2.50;;;22.10;99.90;;;;;;5094139;28;20206;-83
2022/05/16 12:33:35;;;;;;;6.17;2.40;;;22.00;99.90;;;;;;5094110;28;20233;-82
2022/05/16 12:36:03;;;;;;;8.53;2.37;;;22.10;99.90;;;;;;5094382;28;20191;-84
2022/05/16 12:38:33;;;;;;;5.80;2.50;;;22.10;99.90;;;;;;5094045;28;20271;-83
2022/05/16 12:44:16;;;;;;;10.80;2.83;;;22.00;99.90;;;;;;5093613;28;20338;-82
2022/05/16 12:46:55;;;;;;;30.38;4.00;;;22.10;99.90;;;;;;5093412;28;20437;-82
2022/05/16 12:49:40;;;;;;;5.30;2.23;;;22.30;99.90;;;;;;5094008;28;20197;-83
2022/05/16 12:52:28;;;;;;;4.73;1.97;;;22.20;99.90;;;;;;5094607;28;20205;-86
2022/05/16 12:55:22;;;;;;;5.13;1.97;;;22.10;99.90;;;;;;5093779;28;20189;-83
2022/05/16 12:58:02;;;;;;;4.60;1.70;;;21.90;99.90;;;;;;5093046;28;20212;-83
2022/05/16 13:00:39;;;;;;;8.53;2.20;;;22.10;99.90;;;;;;5093628;28;20270;-82
2022/05/16 13:03:22;;;;;;;6.93;2.20;;;22.00;99.90;;;;;;5093677;28;20211;-85
2022/05/16 13:05:58;;;;;;;5.90;2.07;;;21.80;99.90;;;;;;5093559;28;20211;-82
2022/05/16 13:08:32;;;;;;;5.63;2.03;;;21.90;99.90;;;;;;5092616;28;20198;-83
2022/05/16 13:11:11;;;;;;;3.90;1.90;;;22.00;99.90;;;;;;5093143;28;20202;-81
2022/05/16 13:13:56;;;;;;;6.17;1.70;;;22.30;99.90;;;;;;5092974;28;20263;-84
2022/05/16 13:16:27;;;;;;;7.93;2.20;;;22.20;99.90;;;;;;5093275;28;20209;-82
2022/05/16 13:18:59;;;;;;;6.83;2.10;;;22.00;99.90;;;;;;5092372;28;20565;-83
2022/05/16 13:21:36;;;;;;;6.77;2.13;;;22.00;99.90;;;;;;5089621;28;20228;-85
2022/05/16 13:24:07;;;;;;;6.68;2.13;;;22.10;99.90;;;;;;5091452;28;20433;-86
2022/05/16 13:29:22;;;;;;;3.90;1.90;;;22.40;99.90;;;;;;5091180;28;20201;-81
2022/05/16 13:31:52;;;;;;;4.67;2.20;;;22.60;99.90;;;;;;5092785;28;20565;-85
2022/05/16 13:34:32;;;;;;;5.73;1.97;;;22.80;99.90;;;;;;5092751;28;20214;-83
2022/05/16 13:37:00;;;;;;;6.87;2.00;;;22.70;99.90;;;;;;5092803;28;20202;-84
2022/05/16 13:39:27;;;;;;;4.77;1.80;;;22.40;99.90;;;;;;5093254;28;20196;-79
2022/05/16 13:42:00;;;;;;;3.07;1.73;;;22.50;99.90;;;;;;5092695;28;20232;-82
2022/05/16 13:44:34;;;;;;;8.97;2.27;;;23.00;99.90;;;;;;5092988;28;20193;-78
2022/05/16 13:47:02;;;;;;;5.87;1.70;;;23.10;99.90;;;;;;5093110;28;20207;-82
2022/05/16 13:49:29;;;;;;;3.73;2.00;;;23.00;99.90;;;;;;5092884;28;20212;-80
2022/05/16 13:51:55;;;;;;;4.50;2.20;;;23.10;99.90;;;;;;5092504;28;20188;-81